LNG Aquarius — V7BW6 — position and weather

sailwx.info

Track history (hours):
 
Tides and Currents Weather Stations Pressure Air Temp Water Temp Dewpoint Dewpoint Depression Visibility Wind Speed Wind Dir Waves Ship Positions

LNG Aquarius

Last reported at 2017-Mar-26 11:33 UTC. Time now 2017-Mar-26 15:21 UTC.
Position N 29°30' W 094°52'.

Type: Tanker. MMSI: 538001385.

Date/timePositionNaut miles runAvg speedWind from/ knotsBaromVisibWave heightAir tempDewpointWater temp
2017-Mar-26 11:33N 29°30' W 094°52'1110.6
2017-Mar-26 10:33N 29°39' W 094°58'8 8.4
2017-Mar-26 09:33N 29°45' W 095°04'4 0.9
2017-Mar-26 05:09N 29°44' W 095°09'0 0.0
2017-Mar-26 02:33N 29°44' W 095°09'0 0.0
2017-Mar-26 01:33N 29°44' W 095°09'0 0.0
2017-Mar-26 00:33N 29°44' W 095°09'0 0.0
2017-Mar-25 23:09N 29°44' W 095°09'0 0.0
2017-Mar-25 22:21N 29°44' W 095°09'0 0.0
2017-Mar-25 21:27N 29°44' W 095°09'0 0.0
2017-Mar-25 20:33N 29°44' W 095°09'0 0.0
2017-Mar-25 10:13N 29°44' W 095°09'1 1.7
2017-Mar-25 09:33N 29°44' W 095°07'6 5.7
2017-Mar-25 08:33N 29°42' W 095°01'1211.6
2017-Mar-25 07:33N 29°33' W 094°54'31 0.9
2017-Mar-23 21:21N 29°07' W 094°36'  
Track history (hours):
 
Tides and Currents Weather Stations Pressure Air Temp Water Temp Dewpoint Dewpoint Depression Visibility Wind Speed Wind Dir Waves Ship Positions

LNG Aquarius

Last reported at 2017-Mar-26 11:33 UTC. Time now 2017-Mar-26 15:21 UTC.
Position N 29°30' W 094°52'.

Type: Tanker. MMSI: 538001385.

Date/timePositionNaut miles runAvg speedWind from/ knotsBaromVisibWave heightAir tempDewpointWater temp
2017-Mar-26 11:33N 29°30' W 094°52'1110.6
2017-Mar-26 10:33N 29°39' W 094°58'8 8.4
2017-Mar-26 09:33N 29°45' W 095°04'4 0.9
2017-Mar-26 05:09N 29°44' W 095°09'0 0.0
2017-Mar-26 02:33N 29°44' W 095°09'0 0.0
2017-Mar-26 01:33N 29°44' W 095°09'0 0.0
2017-Mar-26 00:33N 29°44' W 095°09'0 0.0
2017-Mar-25 23:09N 29°44' W 095°09'0 0.0
2017-Mar-25 22:21N 29°44' W 095°09'0 0.0
2017-Mar-25 21:27N 29°44' W 095°09'0 0.0
2017-Mar-25 20:33N 29°44' W 095°09'0 0.0
2017-Mar-25 10:13N 29°44' W 095°09'1 1.7
2017-Mar-25 09:33N 29°44' W 095°07'6 5.7
2017-Mar-25 08:33N 29°42' W 095°01'1211.6
2017-Mar-25 07:33N 29°33' W 094°54'31 0.9
2017-Mar-23 21:21N 29°07' W 094°36'  

Dump ship's entire track history